Time;durP1;ratioP1;P1;durP2;ratioP2;P2;SDS_P1;SDS_P2;PMS_P1;PMS_P2;Temp;Humidity;BMP_temperature;BMP_pressure;BME280_temperature;BME280_humidity;BME280_pressure;Samples;Min_cycle;Max_cycle;Signal;HPM_P1;HPM_P2
2023/02/18 00:01:26;;;;;;;6.53;1.70;;;5.00;99.90;5.80;97225.00;;;;5070560;28;20222;-90
2023/02/18 00:04:15;;;;;;;4.77;2.00;;;5.40;99.90;5.90;97232.00;;;;5069274;28;20209;-90
2023/02/18 00:07:03;;;;;;;3.07;2.13;;;4.80;99.90;5.80;97236.00;;;;5053407;28;20207;-90
2023/02/18 00:09:52;;;;;;;3.27;2.60;;;4.70;99.90;6.00;97238.00;;;;5078539;28;20223;-89
2023/02/18 00:12:41;;;;;;;3.20;2.17;;;4.80;99.90;5.90;97232.00;;;;5069222;28;20223;-90
2023/02/18 00:15:30;;;;;;;2.23;1.90;;;4.80;99.90;6.10;97245.00;;;;5063245;28;20204;-90
2023/02/18 00:18:20;;;;;;;3.73;2.00;;;4.80;99.90;5.80;97240.00;;;;5077723;28;20223;-90
2023/02/18 00:21:09;;;;;;;9.47;2.37;;;5.20;99.90;6.10;97223.00;;;;5050357;28;20197;-90
2023/02/18 00:24:00;;;;;;;2.33;1.77;;;4.80;99.90;6.10;97241.00;;;;5055486;28;20212;-91
2023/02/18 00:26:51;;;;;;;1.60;1.33;;;5.40;99.90;6.20;97245.00;;;;5055859;28;20271;-90
2023/02/18 00:29:40;;;;;;;5.20;1.20;;;4.80;99.90;6.30;97237.00;;;;5048866;28;20307;-90
2023/02/18 00:32:29;;;;;;;1.37;0.90;;;5.50;99.90;6.40;97252.00;;;;5057206;28;21320;-90
2023/02/18 00:35:19;;;;;;;1.43;1.10;;;4.90;99.90;5.90;97252.00;;;;5077044;28;20215;-90
2023/02/18 00:38:08;;;;;;;2.43;1.47;;;4.90;99.90;6.00;97236.00;;;;5054404;28;20306;-90
2023/02/18 00:40:58;;;;;;;1.47;1.03;;;4.80;99.90;6.10;97228.00;;;;5063340;28;20233;-91
2023/02/18 00:43:47;;;;;;;2.97;1.20;;;4.80;99.90;6.20;97236.00;;;;5058101;28;20678;-90
2023/02/18 00:46:36;;;;;;;1.07;0.90;;;4.80;99.90;5.70;97242.00;;;;5053135;28;20204;-90
2023/02/18 00:49:25;;;;;;;1.57;1.17;;;4.80;99.90;5.80;97242.00;;;;5068786;28;20224;-90
2023/02/18 00:52:18;;;;;;;1.47;1.10;;;4.70;99.90;5.70;97230.00;;;;5068518;28;20208;-90
2023/02/18 00:55:08;;;;;;;3.80;1.40;;;4.70;99.90;6.00;97221.00;;;;5049226;28;20204;-87
2023/02/18 00:57:56;;;;;;;1.97;1.30;;;4.70;99.90;5.80;97240.00;;;;5051811;28;20227;-88
2023/02/18 01:00:46;;;;;;;3.77;1.07;;;4.70;99.90;5.70;97228.00;;;;5085639;28;20695;-88
2023/02/18 01:03:36;;;;;;;1.40;1.30;;;4.70;99.90;6.10;97236.00;;;;5064845;28;20232;-89
2023/02/18 01:06:24;;;;;;;1.83;1.27;;;6.20;99.90;6.30;97248.00;;;;5061707;28;20197;-85
2023/02/18 01:09:14;;;;;;;1.00;0.90;;;4.80;99.90;5.80;97227.00;;;;5063015;28;20653;-86
2023/02/18 01:12:03;;;;;;;1.77;0.83;;;4.90;99.90;6.10;97235.00;;;;5049240;28;20245;-87
2023/02/18 01:14:52;;;;;;;3.13;1.30;;;4.80;99.90;6.20;97231.00;;;;5069138;28;20234;-86
2023/02/18 01:17:41;;;;;;;5.70;1.13;;;4.80;99.90;5.80;97237.00;;;;5070203;28;20271;-86
2023/02/18 01:20:30;;;;;;;1.03;0.80;;;5.20;99.90;6.10;97232.00;;;;5066713;28;20196;-87
2023/02/18 01:23:19;;;;;;;1.37;1.03;;;5.50;99.90;6.30;97230.00;;;;5048383;28;20228;-87
2023/02/18 01:26:10;;;;;;;3.03;1.23;;;4.80;99.90;6.30;97242.00;;;;5060671;28;20204;-86
2023/02/18 01:28:59;;;;;;;0.80;0.73;;;6.20;99.90;6.20;97234.00;;;;5064287;28;20235;-87
2023/02/18 01:31:48;;;;;;;0.67;0.67;;;4.90;99.90;6.00;97238.00;;;;5085697;28;20199;-87
2023/02/18 01:34:37;;;;;;;2.57;1.00;;;4.90;99.90;6.10;97230.00;;;;5064124;28;20195;-87
2023/02/18 01:37:26;;;;;;;1.57;1.20;;;4.80;99.90;6.30;97226.00;;;;5057152;28;20266;-86
2023/02/18 01:40:17;;;;;;;1.37;0.50;;;4.80;99.90;5.50;97230.00;;;;5046543;28;20207;-87
2023/02/18 01:43:09;;;;;;;1.20;0.90;;;4.80;99.90;5.80;97232.00;;;;5051485;28;20317;-86
2023/02/18 01:46:07;;;;;;;0.80;0.80;;;4.70;99.90;5.70;97218.00;;;;5052246;28;20211;-87
2023/02/18 01:48:58;;;;;;;1.03;0.80;;;4.70;99.90;5.90;97219.00;;;;5069992;28;20220;-86
2023/02/18 01:51:51;;;;;;;1.17;0.80;;;4.70;99.90;6.30;97225.00;;;;5058920;28;20192;-86
2023/02/18 01:54:45;;;;;;;0.73;0.73;;;4.80;99.90;6.30;97235.00;;;;5063131;28;20426;-87
2023/02/18 01:57:37;;;;;;;1.70;1.00;;;4.90;99.90;5.90;97213.00;;;;5053890;28;20289;-87
2023/02/18 02:00:27;;;;;;;1.07;0.70;;;4.90;99.90;5.80;97200.00;;;;5085132;28;20214;-86
2023/02/18 02:03:16;;;;;;;1.97;1.30;;;4.80;99.90;6.10;97220.00;;;;5050665;28;20221;-87
2023/02/18 02:06:14;;;;;;;0.93;0.77;;;5.10;99.90;6.20;97217.00;;;;5044607;28;20212;-87
2023/02/18 02:09:07;;;;;;;0.63;0.63;;;4.90;99.90;6.00;97216.00;;;;5073814;28;20224;-86
2023/02/18 02:12:36;;;;;;;1.30;1.17;;;4.80;99.90;6.30;97212.00;;;;5067660;28;20257;-86
2023/02/18 02:15:35;;;;;;;1.27;0.87;;;4.80;99.90;5.80;97203.00;;;;5078885;28;20218;-87
2023/02/18 02:18:43;;;;;;;0.80;0.80;;;4.80;99.90;5.90;97204.00;;;;5055580;28;20256;-86
2023/02/18 02:22:22;;;;;;;1.33;1.10;;;5.00;99.90;6.00;97176.00;;;;5085566;28;20202;-86
2023/02/18 02:25:23;;;;;;;10.40;1.40;;;4.70;99.90;5.90;97188.00;;;;5042373;28;20255;-86
2023/02/18 02:28:55;;;;;;;1.00;1.00;;;4.70;99.90;6.00;97193.00;;;;5061028;28;20239;-87
2023/02/18 02:32:30;;;;;;;1.63;1.53;;;4.70;99.90;6.10;97200.00;;;;5081912;28;20203;-86
2023/02/18 02:35:24;;;;;;;2.27;1.70;;;4.70;99.90;6.00;97186.00;;;;5035723;28;20208;-89
2023/02/18 02:38:20;;;;;;;1.20;1.10;;;4.70;99.90;5.60;97183.00;;;;5053198;28;20251;-89
2023/02/18 02:41:21;;;;;;;2.67;1.40;;;4.60;99.90;5.70;97181.00;;;;5059502;28;20196;-89
2023/02/18 02:44:21;;;;;;;0.97;0.80;;;4.60;99.90;5.50;97168.00;;;;5064679;28;20269;-87
2023/02/18 02:47:20;;;;;;;1.87;1.47;;;4.60;99.90;5.70;97162.00;;;;5074662;28;20200;-89
2023/02/18 02:50:14;;;;;;;1.83;1.60;;;4.60;99.90;5.80;97164.00;;;;5056880;28;20219;-88
2023/02/18 02:53:13;;;;;;;1.30;1.17;;;4.60;99.90;5.70;97179.00;;;;5055445;28;20210;-88
2023/02/18 02:56:02;;;;;;;1.13;1.03;;;5.00;99.90;5.90;97158.00;;;;5056835;28;20430;-88
2023/02/18 02:59:00;;;;;;;0.83;0.83;;;5.50;99.90;5.80;97171.00;;;;5061170;28;20231;-88
2023/02/18 03:02:18;;;;;;;1.03;0.93;;;5.20;99.90;5.40;97147.00;;;;5057017;28;20497;-88
2023/02/18 03:05:20;;;;;;;1.30;1.23;;;5.10;99.90;5.90;97153.00;;;;5062870;28;20431;-88
2023/02/18 03:08:29;;;;;;;1.13;1.03;;;4.60;99.90;5.80;97159.00;;;;5051710;28;20454;-88
2023/02/18 03:11:18;;;;;;;1.07;1.07;;;4.70;99.90;5.80;97165.00;;;;5063086;28;20205;-88
2023/02/18 03:14:14;;;;;;;1.10;0.87;;;4.70;99.90;5.90;97157.00;;;;5060694;28;20254;-88
2023/02/18 03:17:10;;;;;;;2.63;1.30;;;4.60;99.90;5.80;97161.00;;;;5058517;28;20427;-88
2023/02/18 03:20:09;;;;;;;3.60;2.00;;;4.60;99.90;5.90;97161.00;;;;5057731;28;20208;-88
2023/02/18 03:23:00;;;;;;;1.90;1.03;;;5.00;99.90;6.10;97162.00;;;;5060843;28;20225;-89
2023/02/18 03:25:51;;;;;;;1.33;0.90;;;4.70;99.90;6.20;97166.00;;;;5051635;28;20231;-88
2023/02/18 03:28:40;;;;;;;1.90;1.70;;;4.70;99.90;5.70;97159.00;;;;5050027;28;20436;-87
2023/02/18 03:31:32;;;;;;;1.13;0.90;;;4.80;99.90;5.80;97165.00;;;;5052482;28;20234;-87
2023/02/18 03:34:26;;;;;;;1.83;1.43;;;5.40;99.90;6.00;97163.00;;;;5067985;28;20204;-87
2023/02/18 03:37:16;;;;;;;0.90;0.87;;;4.70;99.90;6.10;97172.00;;;;5067232;28;20227;-86
2023/02/18 03:40:07;;;;;;;1.20;1.10;;;4.70;99.90;6.10;97181.00;;;;5043839;28;20201;-87
2023/02/18 03:42:58;;;;;;;2.03;1.37;;;4.70;99.90;6.00;97177.00;;;;5049509;28;20886;-86
2023/02/18 03:45:47;;;;;;;6.10;1.10;;;5.00;99.90;6.20;97180.00;;;;5060081;28;20196;-87
2023/02/18 03:48:36;;;;;;;1.73;1.10;;;5.00;99.90;6.20;97175.00;;;;5067987;28;20219;-87
2023/02/18 03:51:25;;;;;;;0.93;0.93;;;4.80;99.90;5.50;97176.00;;;;5067418;28;20205;-88
2023/02/18 03:54:14;;;;;;;0.80;0.80;;;4.70;99.90;6.00;97176.00;;;;5051118;28;20204;-87
2023/02/18 03:57:03;;;;;;;1.10;1.10;;;4.70;99.90;6.20;97164.00;;;;5053012;28;20219;-87
2023/02/18 03:59:53;;;;;;;1.27;0.70;;;4.80;99.90;6.30;97174.00;;;;5054985;28;20224;-87
2023/02/18 04:02:42;;;;;;;1.37;0.93;;;5.60;99.90;6.30;97178.00;;;;5070877;28;20700;-86
2023/02/18 04:05:31;;;;;;;1.10;1.10;;;4.90;99.90;5.80;97164.00;;;;5071664;28;20207;-86
2023/02/18 04:08:19;;;;;;;1.17;1.07;;;4.80;99.90;6.10;97174.00;;;;5050408;28;20223;-87
2023/02/18 04:11:08;;;;;;;1.13;1.03;;;4.80;99.90;6.00;97167.00;;;;5054429;28;20197;-86
2023/02/18 04:13:57;;;;;;;1.13;1.03;;;4.80;99.90;6.30;97175.00;;;;5061310;28;20222;-87
2023/02/18 04:16:47;;;;;;;0.80;0.80;;;4.90;99.90;5.90;97172.00;;;;5051456;28;20316;-88
2023/02/18 04:19:36;;;;;;;0.67;0.67;;;4.90;99.90;6.10;97156.00;;;;5050784;28;20826;-87
2023/02/18 04:22:24;;;;;;;0.90;0.80;;;5.30;99.90;6.20;97181.00;;;;5055536;28;20212;-86
2023/02/18 04:25:13;;;;;;;0.90;0.90;;;4.90;99.90;6.30;97179.00;;;;5057320;28;20220;-86
2023/02/18 04:28:02;;;;;;;1.33;0.90;;;5.00;99.90;6.40;97173.00;;;;5059231;28;20224;-87
2023/02/18 04:30:51;;;;;;;1.40;1.20;;;5.00;99.90;6.50;97179.00;;;;5059684;28;20200;-86
2023/02/18 04:33:41;;;;;;;0.77;0.77;;;5.10;99.90;6.20;97173.00;;;;5057272;28;20307;-87
2023/02/18 04:36:30;;;;;;;1.30;1.07;;;5.10;99.90;6.20;97179.00;;;;5061446;28;20689;-87
2023/02/18 04:39:18;;;;;;;0.70;0.70;;;5.10;99.90;6.50;97173.00;;;;5050463;28;20235;-86
2023/02/18 04:42:09;;;;;;;4.47;0.87;;;5.10;99.90;6.50;97181.00;;;;5050918;28;20287;-87
2023/02/18 04:44:57;;;;;;;0.40;0.40;;;5.10;99.90;6.70;97179.00;;;;5057459;28;20231;-87
2023/02/18 04:47:46;;;;;;;2.00;0.70;;;5.20;99.90;6.60;97182.00;;;;5058420;28;20207;-87
2023/02/18 04:50:36;;;;;;;1.00;0.63;;;5.20;99.90;6.70;97174.00;;;;5057188;28;20302;-87
2023/02/18 04:53:25;;;;;;;0.60;0.60;;;5.30;99.90;6.80;97178.00;;;;5071710;28;20189;-89
2023/02/18 04:56:14;;;;;;;1.20;0.83;;;5.30;99.90;6.60;97180.00;;;;5062458;28;20278;-89
2023/02/18 04:59:02;;;;;;;0.40;0.40;;;5.80;99.90;6.50;97181.00;;;;5064386;28;20239;-89
2023/02/18 05:01:51;;;;;;;0.57;0.40;;;7.00;99.90;6.60;97182.00;;;;5062493;28;20217;-89
2023/02/18 05:04:40;;;;;;;0.60;0.60;;;5.40;99.90;6.70;97179.00;;;;5057150;28;20228;-89
2023/02/18 05:07:30;;;;;;;0.73;0.60;;;5.30;99.90;6.50;97184.00;;;;5052953;28;20204;-89
2023/02/18 05:10:19;;;;;;;0.93;0.60;;;5.30;99.90;6.50;97174.00;;;;5053964;28;20211;-88
2023/02/18 05:13:08;;;;;;;0.80;0.80;;;5.30;99.90;6.50;97170.00;;;;5053790;28;20212;-87
2023/02/18 05:15:57;;;;;;;0.80;0.80;;;5.30;99.90;6.50;97173.00;;;;5047641;28;20208;-87
2023/02/18 05:18:45;;;;;;;0.70;0.70;;;5.20;99.90;6.50;97167.00;;;;5067917;28;20227;-87
2023/02/18 05:21:34;;;;;;;1.37;0.80;;;5.20;99.90;6.50;97184.00;;;;5073570;28;20218;-87
2023/02/18 05:24:24;;;;;;;1.40;1.30;;;5.20;99.90;6.60;97181.00;;;;5053455;28;20220;-88
2023/02/18 05:27:13;;;;;;;2.33;2.13;;;5.20;99.90;6.60;97178.00;;;;5062055;28;20212;-87
2023/02/18 05:30:02;;;;;;;2.00;1.80;;;5.20;99.90;6.60;97171.00;;;;5051506;28;20211;-89
2023/02/18 05:32:51;;;;;;;2.60;2.07;;;5.30;99.90;6.40;97189.00;;;;5072077;28;20253;-88
2023/02/18 05:35:40;;;;;;;3.00;1.43;;;5.20;99.90;6.10;97184.00;;;;5072494;28;20590;-88
2023/02/18 05:38:28;;;;;;;1.90;1.27;;;5.20;99.90;6.40;97180.00;;;;5047144;28;20239;-89
2023/02/18 05:41:19;;;;;;;1.27;1.17;;;5.20;99.90;6.60;97180.00;;;;5062313;28;20602;-89
2023/02/18 05:47:13;;;;;;;0.50;0.50;;;5.20;99.90;6.60;97181.00;;;;5080620;28;20191;-89
2023/02/18 05:50:02;;;;;;;0.60;0.60;;;5.20;99.90;6.90;97195.00;;;;5066721;28;20221;-89
2023/02/18 05:52:51;;;;;;;1.37;0.87;;;5.30;99.90;6.70;97194.00;;;;5061950;28;20230;-89
2023/02/18 05:55:40;;;;;;;0.80;0.80;;;5.70;99.90;6.70;97193.00;;;;5070272;28;20205;-89
2023/02/18 05:58:30;;;;;;;0.97;0.80;;;5.40;99.90;6.80;97190.00;;;;5065194;28;20215;-89
2023/02/18 06:01:19;;;;;;;0.67;0.67;;;5.40;99.90;6.80;97189.00;;;;5052055;28;20705;-86
2023/02/18 06:04:08;;;;;;;3.13;1.73;;;5.40;99.90;6.40;97190.00;;;;5060633;28;20302;-87
2023/02/18 06:06:57;;;;;;;2.53;2.33;;;5.40;99.90;6.50;97187.00;;;;5054127;28;20197;-87
2023/02/18 06:09:46;;;;;;;3.20;2.37;;;5.30;99.90;6.70;97192.00;;;;5052430;28;20259;-89
2023/02/18 06:12:35;;;;;;;2.50;1.83;;;5.30;99.90;6.40;97179.00;;;;5051322;28;20208;-89
2023/02/18 06:15:25;;;;;;;3.63;2.23;;;5.20;99.90;6.20;97184.00;;;;5052214;28;20213;-88
2023/02/18 06:18:14;;;;;;;2.73;1.70;;;5.20;99.90;6.20;97181.00;;;;5064598;28;20220;-90
2023/02/18 06:21:03;;;;;;;2.20;1.87;;;5.10;99.90;6.20;97191.00;;;;5068985;28;20428;-88
2023/02/18 06:23:52;;;;;;;3.70;2.43;;;5.00;99.90;6.20;97195.00;;;;5065007;28;20199;-89
2023/02/18 06:26:41;;;;;;;2.40;1.47;;;5.10;99.90;6.30;97193.00;;;;5064240;28;20657;-89
2023/02/18 06:29:30;;;;;;;2.63;1.77;;;5.00;99.90;6.00;97186.00;;;;5067890;28;20307;-88
2023/02/18 06:32:20;;;;;;;134.43;64.97;;;4.90;99.90;6.00;97189.00;;;;5072807;28;20205;-88
2023/02/18 06:35:09;;;;;;;48.00;24.77;;;4.90;99.90;6.10;97205.00;;;;5069919;28;20212;-89
2023/02/18 06:37:59;;;;;;;58.27;30.63;;;4.90;99.90;6.00;97198.00;;;;5055293;28;20654;-88
2023/02/18 06:40:48;;;;;;;82.13;47.93;;;4.90;99.90;6.10;97200.00;;;;5051382;28;20215;-88
2023/02/18 06:43:37;;;;;;;77.07;41.27;;;5.40;99.90;6.40;97202.00;;;;5051583;28;20677;-89
2023/02/18 06:46:26;;;;;;;106.30;55.40;;;4.90;99.90;6.30;97201.00;;;;5052086;28;20274;-88
2023/02/18 06:49:16;;;;;;;69.87;42.43;;;4.90;99.90;6.10;97204.00;;;;5051634;28;20224;-89
2023/02/18 06:52:05;;;;;;;20.57;12.73;;;4.90;99.90;5.70;97193.00;;;;5050879;28;20694;-88
2023/02/18 06:54:54;;;;;;;3.53;2.63;;;4.90;99.90;6.20;97200.00;;;;5052415;28;20240;-88
2023/02/18 06:57:45;;;;;;;6.00;3.50;;;4.90;99.90;6.30;97195.00;;;;5050791;28;20242;-89
2023/02/18 07:00:34;;;;;;;4.03;3.27;;;5.00;99.90;6.30;97203.00;;;;5057092;28;20192;-89
2023/02/18 07:03:23;;;;;;;4.30;3.63;;;5.00;99.90;6.50;97203.00;;;;5069552;28;20199;-89
2023/02/18 07:06:14;;;;;;;2.97;1.50;;;5.00;99.90;6.30;97199.00;;;;5072397;28;20220;-89
2023/02/18 07:09:03;;;;;;;1.80;1.47;;;5.10;99.90;6.50;97208.00;;;;5066112;28;20243;-89
2023/02/18 07:11:51;;;;;;;1.93;1.83;;;5.20;99.90;6.60;97205.00;;;;5054444;28;20192;-88
2023/02/18 07:14:41;;;;;;;4.67;1.30;;;4.60;99.90;6.70;97199.00;;;;5071918;28;20688;-88
2023/02/18 07:17:30;;;;;;;2.27;2.00;;;5.30;99.90;6.90;97214.00;;;;5060703;28;20734;-89
2023/02/18 07:20:19;;;;;;;2.30;2.10;;;5.40;99.90;6.90;97225.00;;;;5071256;28;20192;-89
2023/02/18 07:23:10;;;;;;;2.03;1.83;;;5.40;99.90;6.90;97216.00;;;;5069473;28;20203;-89
2023/02/18 07:26:07;;;;;;;2.20;2.10;;;5.50;99.90;7.00;97221.00;;;;5057554;28;20577;-89
2023/02/18 07:28:56;;;;;;;3.83;2.50;;;5.50;99.90;7.10;97232.00;;;;5050547;28;20232;-90
2023/02/18 07:31:45;;;;;;;3.70;2.17;;;5.60;99.90;6.90;97233.00;;;;5065918;28;20207;-89
2023/02/18 07:34:33;;;;;;;4.87;2.20;;;5.60;99.90;7.00;97230.00;;;;5077026;28;20195;-89
2023/02/18 07:37:22;;;;;;;4.80;2.77;;;5.60;99.90;7.10;97239.00;;;;5063187;28;20697;-89
2023/02/18 07:40:16;;;;;;;3.23;2.63;;;5.60;99.90;7.10;97238.00;;;;5061046;28;20621;-88
2023/02/18 07:43:04;;;;;;;7.10;3.00;;;5.60;99.90;7.10;97246.00;;;;5058751;28;20203;-88
2023/02/18 07:45:53;;;;;;;2.50;2.40;;;5.70;99.90;6.90;97259.00;;;;5071618;28;20293;-89
2023/02/18 07:48:42;;;;;;;3.00;2.60;;;5.70;99.90;6.80;97241.00;;;;5051884;28;20226;-90
2023/02/18 07:51:31;;;;;;;4.33;3.20;;;5.60;99.90;7.10;97247.00;;;;5067623;28;20199;-89
2023/02/18 07:54:21;;;;;;;2.73;2.43;;;5.60;99.90;7.00;97241.00;;;;5074117;28;20212;-88
2023/02/18 07:57:11;;;;;;;4.13;2.70;;;5.60;99.90;7.00;97255.00;;;;5066462;28;20287;-89
2023/02/18 08:00:00;;;;;;;5.97;3.93;;;5.70;99.90;7.10;97260.00;;;;5064737;28;20594;-89
2023/02/18 08:02:48;;;;;;;4.53;3.27;;;5.70;99.90;7.10;97258.00;;;;5063343;28;20206;-89
2023/02/18 08:05:37;;;;;;;5.63;3.03;;;5.70;99.90;6.80;97248.00;;;;5078017;28;20689;-90
2023/02/18 08:08:29;;;;;;;4.27;3.17;;;5.70;99.90;7.20;97261.00;;;;5060045;28;20645;-90
2023/02/18 08:11:18;;;;;;;3.17;2.87;;;5.70;99.90;7.20;97268.00;;;;5067380;28;20697;-89
2023/02/18 08:14:09;;;;;;;3.53;2.77;;;5.80;99.90;7.10;97266.00;;;;5043375;28;20196;-89
2023/02/18 08:16:57;;;;;;;3.60;3.00;;;5.80;99.90;7.20;97263.00;;;;5053199;28;20204;-90
2023/02/18 08:19:46;;;;;;;3.70;2.93;;;5.80;99.90;7.60;97263.00;;;;5048445;28;20224;-90
2023/02/18 08:22:36;;;;;;;4.37;2.90;;;6.00;99.90;7.50;97270.00;;;;5065934;28;20204;-89
2023/02/18 08:25:25;;;;;;;3.37;2.60;;;6.10;99.90;7.80;97277.00;;;;5045893;28;20224;-90
2023/02/18 08:28:18;;;;;;;4.90;3.00;;;6.20;99.90;7.60;97264.00;;;;5049611;28;20711;-90
2023/02/18 08:31:13;;;;;;;3.43;2.73;;;6.30;99.90;8.10;97270.00;;;;5050720;28;20211;-90
2023/02/18 08:34:03;;;;;;;4.67;2.63;;;6.40;99.90;8.50;97256.00;;;;5062377;28;20202;-89
2023/02/18 08:36:52;;;;;;;2.50;2.30;;;6.50;99.90;8.70;97272.00;;;;5050813;28;20766;-89
2023/02/18 08:39:41;;;;;;;4.93;3.07;;;6.80;99.90;8.90;97260.00;;;;5049082;28;20216;-89
2023/02/18 08:42:30;;;;;;;4.83;2.80;;;6.90;99.90;9.00;97266.00;;;;5055384;28;20770;-88
2023/02/18 08:45:19;;;;;;;4.70;3.63;;;7.10;99.90;9.00;97270.00;;;;5066905;28;20201;-87
2023/02/18 08:48:11;;;;;;;3.70;3.23;;;7.30;99.90;9.10;97268.00;;;;5047434;28;20228;-88
2023/02/18 08:51:00;;;;;;;3.67;2.63;;;7.40;99.90;9.20;97266.00;;;;5056550;28;20417;-88
2023/02/18 08:53:49;;;;;;;4.13;2.50;;;7.50;99.90;9.30;97269.00;;;;5049315;28;20702;-88
2023/02/18 08:56:38;;;;;;;4.60;3.07;;;7.60;99.90;9.60;97270.00;;;;5048536;28;20232;-88
2023/02/18 08:59:27;;;;;;;6.47;3.30;;;7.80;99.90;9.80;97276.00;;;;5049026;28;20608;-87
2023/02/18 09:02:16;;;;;;;3.33;2.77;;;7.80;99.90;9.80;97267.00;;;;5048871;28;20208;-88
2023/02/18 09:05:08;;;;;;;5.90;3.40;;;8.00;99.90;10.00;97270.00;;;;5050903;28;20237;-87
2023/02/18 09:07:57;;;;;;;5.90;4.13;;;8.10;99.90;10.10;97255.00;;;;5048094;28;20231;-88
2023/02/18 09:10:46;;;;;;;7.53;5.00;;;8.20;99.90;10.40;97258.00;;;;5059434;28;20697;-87
2023/02/18 09:13:34;;;;;;;7.83;5.20;;;8.40;99.90;10.70;97248.00;;;;5066462;28;20575;-88
2023/02/18 09:16:23;;;;;;;19.63;14.07;;;8.60;99.90;10.80;97241.00;;;;5058518;28;20673;-87
2023/02/18 09:19:13;;;;;;;6.77;6.07;;;8.80;99.90;11.00;97248.00;;;;5057328;28;20236;-88
2023/02/18 09:22:04;;;;;;;5.93;4.77;;;9.10;99.90;11.40;97249.00;;;;5060123;28;20233;-87
2023/02/18 09:24:52;;;;;;;6.60;4.93;;;9.30;99.90;11.70;97254.00;;;;5058366;28;20195;-88
2023/02/18 09:27:41;;;;;;;6.57;4.83;;;9.50;99.90;12.00;97260.00;;;;5071199;28;20302;-89
2023/02/18 09:30:30;;;;;;;8.67;5.77;;;9.70;99.90;12.30;97247.00;;;;5062915;28;20712;-87
2023/02/18 09:33:19;;;;;;;9.57;4.70;;;10.00;99.90;12.60;97246.00;;;;5073174;28;20564;-87
2023/02/18 09:36:08;;;;;;;4.57;3.93;;;10.30;99.90;12.70;97241.00;;;;5064322;28;20204;-88
2023/02/18 09:38:59;;;;;;;6.27;4.40;;;10.60;99.90;13.10;97258.00;;;;5073152;28;20643;-88
2023/02/18 09:41:50;;;;;;;9.50;3.90;;;10.80;99.90;13.50;97249.00;;;;5061264;28;20259;-88
2023/02/18 09:44:43;;;;;;;9.97;3.80;;;11.10;99.90;13.80;97249.00;;;;5052833;28;20289;-89
2023/02/18 09:47:36;;;;;;;8.37;4.83;;;11.40;99.90;13.80;97245.00;;;;5077633;28;20277;-88
2023/02/18 09:50:29;;;;;;;9.50;3.87;;;11.70;99.90;14.20;97231.00;;;;5067691;28;20203;-88
2023/02/18 09:53:18;;;;;;;4.63;2.87;;;11.90;99.90;14.20;97232.00;;;;5064629;28;20193;-88
2023/02/18 09:56:13;;;;;;;4.20;2.10;;;12.10;99.90;14.70;97232.00;;;;5067237;28;20197;-87
2023/02/18 09:59:08;;;;;;;3.73;2.30;;;12.40;99.90;15.10;97226.00;;;;5063392;28;20234;-88
2023/02/18 10:01:58;;;;;;;2.67;2.10;;;12.70;99.90;15.50;97225.00;;;;5057609;28;20203;-90
2023/02/18 10:04:51;;;;;;;2.40;2.03;;;12.90;99.90;15.90;97228.00;;;;5064853;28;20192;-90
2023/02/18 10:07:41;;;;;;;3.90;2.47;;;13.30;99.90;16.20;97215.00;;;;5061177;28;20263;-90
2023/02/18 10:10:40;;;;;;;5.57;3.10;;;13.60;99.90;16.60;97215.00;;;;5078278;28;20211;-90
2023/02/18 10:13:33;;;;;;;5.67;2.47;;;;;16.60;97219.00;;;;5079095;28;20234;-92
2023/02/18 10:16:24;;;;;;;5.80;2.20;;;;;16.90;97213.00;;;;5056545;28;20204;-90
2023/02/18 10:19:22;;;;;;;10.07;3.00;;;;;17.30;97206.00;;;;5068219;28;20236;-90
2023/02/18 10:22:12;;;;;;;5.30;2.97;;;;;17.70;97198.00;;;;5061844;28;20231;-91
2023/02/18 10:25:07;;;;;;;7.10;3.37;;;15.10;99.90;18.10;97205.00;;;;5060330;28;20260;-91
2023/02/18 10:27:59;;;;;;;8.07;4.00;;;15.40;99.90;18.30;97196.00;;;;5065780;28;20226;-91
2023/02/18 10:30:55;;;;;;;5.70;4.63;;;15.60;99.90;18.50;97198.00;;;;5067053;28;20257;-90
2023/02/18 10:33:53;;;;;;;4.00;2.27;;;15.90;99.90;18.50;97189.00;;;;5064995;28;20201;-91
2023/02/18 10:36:46;;;;;;;3.80;2.90;;;16.10;99.90;18.70;97176.00;;;;5053493;28;20207;-92
2023/02/18 10:39:48;;;;;;;5.17;3.53;;;16.20;99.90;19.20;97177.00;;;;5062258;28;20219;-90
2023/02/18 10:42:50;;;;;;;5.90;3.60;;;16.50;99.90;19.60;97180.00;;;;5047967;28;20200;-90
2023/02/18 10:45:49;;;;;;;4.17;2.27;;;16.80;99.90;19.80;97164.00;;;;5061082;28;20222;-91
2023/02/18 10:48:57;;;;;;;3.00;2.20;;;17.10;99.90;20.30;97171.00;;;;5066002;28;20233;-92
2023/02/18 10:51:51;;;;;;;2.37;1.40;;;17.60;99.90;20.40;97167.00;;;;5065258;28;20211;-93
2023/02/18 10:54:52;;;;;;;4.57;1.57;;;18.20;97.80;21.00;97145.00;;;;5067484;28;20191;-92
2023/02/18 10:57:49;;;;;;;1.73;1.10;;;19.20;93.40;21.50;97147.00;;;;5064845;28;20205;-91
2023/02/18 11:00:40;;;;;;;5.83;1.67;;;19.10;93.60;21.80;97135.00;;;;5070460;28;20366;-91
2023/02/18 11:03:42;;;;;;;2.63;1.27;;;19.50;93.40;22.50;97134.00;;;;5060267;28;20199;-91
2023/02/18 11:06:38;;;;;;;2.30;1.23;;;20.00;92.70;22.70;97123.00;;;;5068267;28;20807;-91
2023/02/18 11:09:39;;;;;;;3.60;1.43;;;20.50;89.60;22.60;97128.00;;;;5069366;28;20237;-93
2023/02/18 11:12:35;;;;;;;1.43;1.33;;;20.70;86.00;22.70;97118.00;;;;5067986;28;20261;-91
2023/02/18 11:15:25;;;;;;;1.63;1.20;;;20.80;82.50;23.00;97125.00;;;;5069993;28;20204;-92
2023/02/18 11:18:29;;;;;;;2.07;1.37;;;21.00;83.40;23.20;97123.00;;;;5069512;28;20227;-90
2023/02/18 11:21:34;;;;;;;0.63;0.60;;;21.10;78.70;23.70;97101.00;;;;5063357;28;20188;-90
2023/02/18 11:24:25;;;;;;;1.80;0.90;;;21.40;76.70;22.40;97089.00;;;;5066547;28;20234;-90
2023/02/18 11:27:22;;;;;;;1.77;1.20;;;21.50;73.60;22.90;97081.00;;;;5062717;28;20247;-90
2023/02/18 11:30:21;;;;;;;4.83;2.40;;;21.40;73.10;23.70;97081.00;;;;5058783;28;20219;-91
2023/02/18 11:33:18;;;;;;;1.17;0.73;;;21.50;72.80;23.40;97075.00;;;;5060718;28;20204;-89
2023/02/18 11:36:20;;;;;;;2.97;1.00;;;21.60;66.90;23.50;97050.00;;;;5072519;28;20269;-90
2023/02/18 11:39:21;;;;;;;2.03;1.70;;;21.60;65.50;24.00;97055.00;;;;5060549;28;20723;-90
2023/02/18 11:42:14;;;;;;;4.30;2.37;;;21.80;67.20;24.60;97040.00;;;;5062080;28;20214;-90
2023/02/18 11:45:03;;;;;;;5.50;3.13;;;22.10;68.10;24.80;97044.00;;;;5063999;28;20204;-90
2023/02/18 11:48:00;;;;;;;2.40;1.97;;;22.50;66.20;25.20;97026.00;;;;5058682;28;20248;-90
2023/02/18 11:50:52;;;;;;;2.73;1.47;;;22.80;64.70;25.60;97029.00;;;;5070128;28;20201;-90
2023/02/18 11:53:58;;;;;;;2.10;1.50;;;;;25.10;97001.00;;;;5063132;28;20349;-91
2023/02/18 11:56:56;;;;;;;4.43;1.50;;;;;26.30;96999.00;;;;5064575;28;20203;-90
2023/02/18 11:59:45;;;;;;;5.20;2.33;;;;;26.80;96985.00;;;;5067948;28;20277;-91
2023/02/18 12:02:36;;;;;;;1.90;1.50;;;;;26.80;96985.00;;;;5072066;28;20281;-90
2023/02/18 12:05:27;;;;;;;5.50;1.70;;;;;25.90;96972.00;;;;5059807;28;20203;-90
2023/02/18 12:08:20;;;;;;;2.00;1.40;;;;;25.90;96976.00;;;;5071586;28;20275;-91
2023/02/18 12:11:13;;;;;;;3.63;1.20;;;;;25.00;96958.00;;;;5065183;28;20293;-90
2023/02/18 12:14:03;;;;;;;2.17;1.00;;;;;25.90;96965.00;;;;5060488;28;20218;-90
2023/02/18 12:17:36;;;;;;;3.67;1.20;;;24.00;55.20;25.80;96961.00;;;;5058867;28;20288;-92
2023/02/18 12:20:55;;;;;;;3.73;1.50;;;23.90;53.70;25.60;96939.00;;;;5057687;28;20208;-90
2023/02/18 12:23:58;;;;;;;2.73;1.57;;;23.70;54.40;26.50;96934.00;;;;5064318;28;20260;-90
2023/02/18 12:26:58;;;;;;;2.33;1.53;;;23.90;55.20;26.90;96943.00;;;;5061646;28;20708;-90
2023/02/18 12:30:10;;;;;;;1.73;1.37;;;24.30;54.50;26.70;96909.00;;;;5061771;28;20229;-91
2023/02/18 12:33:08;;;;;;;4.63;2.10;;;24.40;54.10;25.70;96927.00;;;;5069034;28;20687;-88
2023/02/18 12:36:10;;;;;;;2.70;1.60;;;24.50;53.00;25.60;96915.00;;;;5070349;28;20207;-90
2023/02/18 12:39:12;;;;;;;2.00;1.37;;;24.40;52.40;26.90;96924.00;;;;5048501;28;20702;-91
2023/02/18 12:42:19;;;;;;;2.13;1.70;;;24.50;52.30;27.30;96912.00;;;;5048594;28;20204;-90
2023/02/18 12:45:45;;;;;;;3.20;2.70;;;24.70;52.70;28.10;96916.00;;;;5078113;28;20209;-90
2023/02/18 12:48:55;;;;;;;3.05;2.10;;;25.20;53.10;28.10;96905.00;;;;5067622;28;20306;-90
2023/02/18 12:51:58;;;;;;;3.78;2.03;;;25.50;52.40;28.90;96900.00;;;;5069867;28;20194;-90
2023/02/18 12:55:26;;;;;;;5.25;2.38;;;25.90;51.90;29.40;96886.00;;;;5074854;28;20408;-90
2023/02/18 12:58:33;;;;;;;5.13;2.85;;;26.50;51.30;28.90;96899.00;;;;5066636;28;20415;-90
2023/02/18 13:01:39;;;;;;;5.78;2.42;;;26.90;50.40;29.00;96889.00;;;;5078865;28;20794;-91
2023/02/18 13:04:50;;;;;;;4.40;3.13;;;27.00;49.50;29.40;96904.00;;;;5067648;28;20439;-90
2023/02/18 13:07:56;;;;;;;4.22;2.58;;;27.10;49.60;29.90;96889.00;;;;5065020;28;20881;-91